Time;durP1;ratioP1;P1;durP2;ratioP2;P2;SDS_P1;SDS_P2;PMS_P1;PMS_P2;Temp;Humidity;BMP_temperature;BMP_pressure;BME280_temperature;BME280_humidity;BME280_pressure;Samples;Min_cycle;Max_cycle;Signal;HPM_P1;HPM_P2
2021/04/10 00:00:45;;;;;;;4.32;3.58;;;12.40;64.00;;;;;;5095187;28;20777;-68
2021/04/10 00:03:12;;;;;;;6.82;4.60;;;12.50;64.70;;;;;;5095245;28;20278;-68
2021/04/10 00:05:38;;;;;;;5.93;4.05;;;12.60;63.90;;;;;;5095793;28;20206;-67
2021/04/10 00:08:05;;;;;;;5.60;4.20;;;12.60;63.70;;;;;;5095181;28;20230;-67
2021/04/10 00:10:32;;;;;;;5.55;3.10;;;12.60;64.60;;;;;;5094916;28;20236;-68
2021/04/10 00:13:00;;;;;;;3.45;3.13;;;12.60;63.80;;;;;;5095255;28;20233;-67
2021/04/10 00:15:28;;;;;;;3.20;2.80;;;12.60;62.80;;;;;;5094302;28;20206;-67
2021/04/10 00:17:54;;;;;;;3.17;2.80;;;12.50;62.50;;;;;;5094402;28;20233;-67
2021/04/10 00:20:22;;;;;;;4.07;2.90;;;12.60;62.90;;;;;;5094756;28;20230;-68
2021/04/10 00:22:49;;;;;;;3.35;2.53;;;12.60;62.70;;;;;;5094586;28;20224;-67
2021/04/10 00:25:16;;;;;;;3.92;2.65;;;12.50;62.00;;;;;;5094603;28;20569;-68
2021/04/10 00:27:43;;;;;;;2.38;2.17;;;12.40;62.40;;;;;;5094606;28;20659;-68
2021/04/10 00:30:12;;;;;;;4.70;2.95;;;12.40;63.20;;;;;;5094084;28;20222;-67
2021/04/10 00:32:39;;;;;;;3.05;2.70;;;12.50;63.60;;;;;;5094262;28;20198;-67
2021/04/10 00:35:07;;;;;;;4.72;2.97;;;12.50;62.80;;;;;;5094428;28;20202;-68
2021/04/10 00:37:35;;;;;;;5.10;2.47;;;12.40;62.80;;;;;;5094045;28;20214;-68
2021/04/10 00:40:01;;;;;;;2.97;2.55;;;12.30;62.30;;;;;;5094247;28;20222;-68
2021/04/10 00:42:27;;;;;;;4.80;2.67;;;12.30;62.00;;;;;;5094043;28;20205;-68
2021/04/10 00:44:54;;;;;;;3.15;2.47;;;12.30;63.40;;;;;;5093951;28;20229;-68
2021/04/10 00:47:21;;;;;;;4.20;2.10;;;12.40;63.70;;;;;;5093671;28;20202;-68
2021/04/10 00:49:47;;;;;;;3.10;2.28;;;12.30;62.80;;;;;;5093953;28;20226;-68
2021/04/10 00:52:15;;;;;;;2.60;2.40;;;12.30;62.90;;;;;;5094080;28;20603;-68
2021/04/10 00:54:41;;;;;;;3.63;2.67;;;12.30;63.40;;;;;;5093836;28;20297;-68
2021/04/10 00:57:08;;;;;;;2.97;2.30;;;12.30;62.70;;;;;;5093651;28;20229;-70
2021/04/10 00:59:35;;;;;;;5.88;2.50;;;12.30;62.10;;;;;;5093740;28;20258;-71
2021/04/10 01:02:02;;;;;;;3.17;2.20;;;12.40;62.30;;;;;;5094134;28;20612;-71
2021/04/10 01:04:30;;;;;;;3.30;2.20;;;12.50;63.90;;;;;;5093844;28;20221;-72
2021/04/10 01:06:56;;;;;;;2.20;2.00;;;12.50;63.80;;;;;;5093251;28;20666;-71
2021/04/10 01:09:23;;;;;;;2.10;1.90;;;12.50;62.10;;;;;;5093631;28;20210;-71
2021/04/10 01:12:08;;;;;;;3.70;2.22;;;12.60;63.20;;;;;;5093742;28;20198;-70
2021/04/10 01:14:44;;;;;;;2.33;2.10;;;12.60;63.00;;;;;;5093520;28;20205;-70
2021/04/10 01:17:13;;;;;;;2.22;1.90;;;12.60;61.90;;;;;;5093408;28;20242;-71
2021/04/10 01:20:05;;;;;;;2.40;2.03;;;12.70;60.70;;;;;;5093490;28;20698;-71
2021/04/10 01:22:53;;;;;;;3.05;1.88;;;12.80;60.30;;;;;;5093263;28;20302;-71
2021/04/10 01:25:27;;;;;;;2.58;1.90;;;13.00;59.70;;;;;;5093106;28;20202;-71
2021/04/10 01:27:57;;;;;;;2.10;1.90;;;13.10;59.30;;;;;;5093540;28;20273;-70
2021/04/10 01:30:27;;;;;;;2.15;1.52;;;13.20;59.00;;;;;;5093416;28;20222;-71
2021/04/10 01:32:57;;;;;;;3.50;1.90;;;13.30;58.80;;;;;;5093124;28;20198;-70
2021/04/10 01:35:28;;;;;;;1.95;1.42;;;13.30;58.40;;;;;;5092884;28;20202;-70
2021/04/10 01:37:57;;;;;;;3.40;1.90;;;13.40;58.30;;;;;;5092979;28;20206;-71
2021/04/10 01:40:27;;;;;;;3.33;1.80;;;13.40;58.20;;;;;;5092930;28;20260;-71
2021/04/10 01:42:55;;;;;;;2.03;1.75;;;13.40;58.10;;;;;;5092625;28;20240;-69
2021/04/10 01:45:22;;;;;;;3.00;1.60;;;13.40;58.00;;;;;;5094348;28;20263;-67
2021/04/10 01:47:52;;;;;;;2.28;1.75;;;13.50;58.20;;;;;;5093962;28;20534;-66
2021/04/10 01:50:20;;;;;;;2.67;2.08;;;13.50;58.30;;;;;;5094245;28;20222;-66
2021/04/10 01:52:48;;;;;;;2.30;1.70;;;13.50;58.10;;;;;;5094260;28;20541;-66
2021/04/10 01:55:17;;;;;;;2.00;1.75;;;13.50;58.50;;;;;;5094007;28;20287;-66
2021/04/10 01:57:43;;;;;;;1.88;1.70;;;13.50;58.20;;;;;;5094264;28;20206;-66
2021/04/10 02:00:12;;;;;;;2.45;1.80;;;13.50;58.30;;;;;;5093861;28;20752;-67
2021/04/10 02:02:40;;;;;;;2.05;1.73;;;13.50;58.30;;;;;;5094348;28;20312;-66
2021/04/10 02:05:11;;;;;;;2.10;1.60;;;13.50;58.50;;;;;;5093949;28;20287;-66
2021/04/10 02:07:38;;;;;;;2.70;1.83;;;13.40;58.60;;;;;;5093531;28;20630;-66
2021/04/10 02:10:08;;;;;;;2.78;1.52;;;13.50;58.50;;;;;;5093767;28;20222;-66
2021/04/10 02:12:34;;;;;;;3.90;2.15;;;13.50;58.50;;;;;;5094505;28;20205;-66
2021/04/10 02:15:01;;;;;;;1.88;1.70;;;13.40;59.00;;;;;;5093868;28;20204;-66
2021/04/10 02:17:28;;;;;;;2.10;1.67;;;13.40;59.50;;;;;;5093556;28;20737;-67
2021/04/10 02:19:56;;;;;;;2.45;1.58;;;13.40;59.30;;;;;;5093891;28;20222;-66
2021/04/10 02:22:23;;;;;;;2.67;1.80;;;13.40;59.50;;;;;;5093581;28;20205;-67
2021/04/10 02:24:50;;;;;;;3.28;1.80;;;13.40;59.80;;;;;;5094071;28;20202;-67
2021/04/10 02:27:16;;;;;;;1.42;1.33;;;13.40;59.60;;;;;;5093319;28;20244;-66
2021/04/10 02:29:44;;;;;;;1.60;1.38;;;13.40;59.60;;;;;;5093544;28;20217;-66
2021/04/10 02:32:18;;;;;;;1.80;1.70;;;13.30;59.90;;;;;;5093968;28;20289;-66
2021/04/10 02:34:50;;;;;;;1.70;1.60;;;13.30;59.90;;;;;;5093911;28;20202;-66
2021/04/10 02:37:17;;;;;;;2.78;1.95;;;13.30;59.90;;;;;;5093159;28;20206;-67
2021/04/10 02:39:47;;;;;;;1.80;1.70;;;13.20;60.50;;;;;;5093848;28;20222;-66
2021/04/10 02:42:15;;;;;;;1.70;1.60;;;13.20;60.10;;;;;;5093514;28;20206;-66
2021/04/10 02:44:47;;;;;;;3.00;1.70;;;13.20;60.90;;;;;;5093401;28;20316;-66
2021/04/10 02:47:15;;;;;;;2.28;2.08;;;13.20;61.40;;;;;;5093605;28;20206;-66
2021/04/10 02:49:49;;;;;;;1.95;1.75;;;13.10;61.20;;;;;;5093731;28;20226;-67
2021/04/10 02:52:20;;;;;;;2.08;1.80;;;13.10;61.30;;;;;;5094437;28;20221;-66
2021/04/10 02:54:50;;;;;;;2.22;1.45;;;13.10;61.50;;;;;;5097363;28;20284;-67
2021/04/10 02:57:17;;;;;;;2.67;1.90;;;13.00;62.20;;;;;;5097213;28;20277;-66
2021/04/10 02:59:48;;;;;;;2.20;1.77;;;13.00;62.30;;;;;;5097529;28;20217;-66
2021/04/10 03:02:15;;;;;;;3.05;1.75;;;13.00;62.10;;;;;;5097649;28;20630;-66
2021/04/10 03:04:43;;;;;;;2.17;1.60;;;12.90;61.90;;;;;;5097688;28;20337;-67
2021/04/10 03:07:10;;;;;;;2.38;1.60;;;13.00;62.20;;;;;;5097057;28;20206;-67
2021/04/10 03:09:38;;;;;;;2.40;1.77;;;13.00;62.80;;;;;;5096974;28;20226;-66
2021/04/10 03:12:06;;;;;;;3.00;1.50;;;13.00;63.30;;;;;;5097543;28;20292;-66
2021/04/10 03:14:35;;;;;;;3.90;1.67;;;12.90;63.10;;;;;;5097343;28;20289;-67
2021/04/10 03:17:02;;;;;;;2.50;1.67;;;13.00;63.20;;;;;;5096696;28;20292;-67
2021/04/10 03:19:30;;;;;;;1.80;1.70;;;13.00;62.90;;;;;;5096943;28;20202;-66
2021/04/10 03:21:56;;;;;;;2.15;1.52;;;13.00;62.80;;;;;;5096926;28;20250;-66
2021/04/10 03:24:22;;;;;;;2.40;1.42;;;13.10;62.80;;;;;;5097103;28;20294;-67
2021/04/10 03:26:49;;;;;;;1.67;1.58;;;13.20;63.00;;;;;;5096471;28;20292;-66
2021/04/10 03:29:17;;;;;;;2.03;1.83;;;13.20;62.50;;;;;;5096612;28;20201;-67
2021/04/10 03:31:43;;;;;;;1.80;1.70;;;13.20;62.70;;;;;;5097202;28;20292;-66
2021/04/10 03:34:10;;;;;;;2.15;1.40;;;13.30;62.30;;;;;;5096592;28;20194;-67
2021/04/10 03:36:36;;;;;;;3.65;1.50;;;13.30;63.10;;;;;;5096662;28;20239;-66
2021/04/10 03:39:03;;;;;;;4.40;1.60;;;13.20;62.70;;;;;;5096815;28;20614;-67
2021/04/10 03:41:30;;;;;;;1.75;1.50;;;13.20;63.20;;;;;;5096404;28;20222;-66
2021/04/10 03:43:56;;;;;;;1.73;1.63;;;13.20;63.30;;;;;;5096802;28;20278;-66
2021/04/10 03:46:23;;;;;;;1.70;1.60;;;13.20;63.40;;;;;;5096391;28;20768;-66
2021/04/10 03:48:49;;;;;;;1.50;1.40;;;13.20;63.60;;;;;;5096489;28;20294;-66
2021/04/10 03:51:16;;;;;;;3.05;2.17;;;13.20;64.30;;;;;;5096575;28;20222;-66
2021/04/10 03:53:42;;;;;;;2.10;1.90;;;13.20;65.00;;;;;;5096488;28;20292;-66
2021/04/10 03:56:10;;;;;;;1.60;1.50;;;13.20;65.40;;;;;;5095996;28;20348;-66
2021/04/10 03:58:36;;;;;;;4.50;2.50;;;13.20;65.40;;;;;;5096604;28;20288;-66
2021/04/10 04:01:02;;;;;;;2.80;1.85;;;13.20;66.00;;;;;;5096052;28;20303;-66
2021/04/10 04:03:30;;;;;;;1.60;1.50;;;13.20;66.20;;;;;;5095626;28;20314;-66
2021/04/10 04:05:56;;;;;;;2.13;1.92;;;13.20;66.40;;;;;;5094957;28;20284;-66
2021/04/10 04:08:22;;;;;;;2.75;1.80;;;13.10;66.60;;;;;;5096247;28;20210;-66
2021/04/10 04:10:48;;;;;;;2.28;1.60;;;13.10;66.80;;;;;;5095572;28;20229;-66
2021/04/10 04:13:15;;;;;;;1.70;1.60;;;13.10;67.10;;;;;;5096651;28;20289;-66
2021/04/10 04:15:41;;;;;;;1.70;1.60;;;13.10;67.10;;;;;;5095336;28;20691;-66
2021/04/10 04:18:07;;;;;;;1.85;1.75;;;13.20;67.40;;;;;;5095920;28;20297;-67
2021/04/10 04:20:34;;;;;;;3.95;2.17;;;13.20;67.80;;;;;;5096034;28;20224;-66
2021/04/10 04:23:01;;;;;;;2.17;1.55;;;13.10;68.10;;;;;;5095918;28;20221;-66
2021/04/10 04:25:27;;;;;;;1.70;1.60;;;13.10;68.40;;;;;;5095731;28;20726;-66
2021/04/10 04:27:53;;;;;;;7.68;3.47;;;13.00;69.70;;;;;;5095944;28;20642;-66
2021/04/10 04:30:21;;;;;;;1.90;1.50;;;13.00;69.20;;;;;;5095607;28;20235;-66
2021/04/10 04:32:47;;;;;;;1.55;1.33;;;13.00;69.40;;;;;;5095633;28;20293;-66
2021/04/10 04:35:13;;;;;;;1.88;1.60;;;13.00;69.60;;;;;;5095697;28;20644;-66
2021/04/10 04:37:40;;;;;;;3.30;1.90;;;13.00;69.90;;;;;;5095548;28;20202;-66
2021/04/10 04:40:08;;;;;;;3.03;1.35;;;13.00;70.00;;;;;;5095272;28;20222;-66
2021/04/10 04:42:34;;;;;;;1.73;1.60;;;12.90;70.10;;;;;;5095319;28;20206;-67
2021/04/10 04:45:01;;;;;;;3.42;1.63;;;12.90;70.20;;;;;;5095332;28;20233;-66
2021/04/10 04:47:27;;;;;;;1.83;1.65;;;12.90;70.90;;;;;;5095243;28;20566;-66
2021/04/10 04:49:53;;;;;;;2.08;1.58;;;12.80;70.10;;;;;;5095202;28;20678;-66
2021/04/10 04:52:20;;;;;;;3.05;1.75;;;12.80;70.50;;;;;;5095666;28;20208;-66
2021/04/10 04:54:47;;;;;;;2.13;1.63;;;12.70;70.70;;;;;;5095334;28;20621;-67
2021/04/10 04:57:13;;;;;;;2.10;1.98;;;12.70;71.00;;;;;;5094736;28;20198;-66
2021/04/10 04:59:39;;;;;;;2.85;1.80;;;12.70;70.80;;;;;;5094999;28;20218;-66
2021/04/10 05:02:06;;;;;;;1.60;1.42;;;12.70;70.70;;;;;;5095254;28;20339;-66
2021/04/10 05:04:32;;;;;;;3.95;1.20;;;12.70;70.90;;;;;;5095055;28;20294;-66
2021/04/10 05:06:58;;;;;;;2.35;1.40;;;12.60;71.90;;;;;;5094684;28;20670;-66
2021/04/10 05:09:25;;;;;;;1.60;1.50;;;12.60;72.60;;;;;;5095042;28;20202;-66
2021/04/10 05:11:52;;;;;;;2.95;1.73;;;12.60;73.30;;;;;;5094705;28;20218;-66
2021/04/10 05:14:18;;;;;;;2.75;1.45;;;12.50;75.10;;;;;;5094782;28;20198;-66
2021/04/10 05:16:44;;;;;;;2.38;1.50;;;12.40;80.50;;;;;;5094312;28;20654;-66
2021/04/10 05:19:11;;;;;;;1.88;1.40;;;12.20;83.20;;;;;;5094830;28;20208;-66
2021/04/10 05:21:37;;;;;;;2.78;1.60;;;12.10;85.10;;;;;;5095191;28;20595;-66
2021/04/10 05:24:04;;;;;;;3.75;2.50;;;12.00;86.90;;;;;;5094911;28;20308;-66
2021/04/10 05:26:31;;;;;;;4.03;2.78;;;11.90;87.40;;;;;;5094178;28;20293;-66
2021/04/10 05:28:58;;;;;;;1.88;1.48;;;11.90;88.60;;;;;;5094568;28;20202;-66
2021/04/10 05:31:24;;;;;;;2.10;1.90;;;11.90;89.80;;;;;;5094384;28;20309;-66
2021/04/10 05:33:50;;;;;;;1.50;1.40;;;11.90;88.20;;;;;;5094567;28;20199;-66
2021/04/10 05:36:17;;;;;;;5.13;1.80;;;11.90;88.90;;;;;;5094178;28;20289;-66
2021/04/10 05:38:43;;;;;;;2.15;1.40;;;11.90;89.30;;;;;;5094696;28;20205;-66
2021/04/10 05:41:09;;;;;;;2.17;1.48;;;11.90;89.10;;;;;;5093938;28;20222;-66
2021/04/10 05:43:35;;;;;;;3.13;1.90;;;11.90;88.60;;;;;;5094229;28;20317;-66
2021/04/10 05:46:03;;;;;;;1.60;1.50;;;11.90;89.00;;;;;;5093828;28;20259;-66
2021/04/10 05:48:29;;;;;;;3.97;1.65;;;11.90;88.00;;;;;;5094297;28;20233;-66
2021/04/10 05:50:55;;;;;;;4.85;1.65;;;11.90;88.20;;;;;;5094612;28;20297;-66
2021/04/10 05:53:22;;;;;;;4.95;3.00;;;11.90;87.70;;;;;;5094736;28;20213;-66
2021/04/10 05:55:48;;;;;;;2.35;1.90;;;12.00;87.90;;;;;;5093572;28;20304;-66
2021/04/10 05:58:14;;;;;;;2.28;1.55;;;12.00;87.10;;;;;;5093880;28;20209;-66
2021/04/10 06:00:41;;;;;;;3.15;1.50;;;12.00;86.60;;;;;;5093936;28;20317;-66
2021/04/10 06:03:08;;;;;;;1.73;1.35;;;12.00;86.10;;;;;;5093537;28;20226;-66
2021/04/10 06:05:34;;;;;;;3.05;1.85;;;12.00;85.80;;;;;;5094014;28;20292;-66
2021/04/10 06:08:01;;;;;;;1.90;1.20;;;12.00;84.90;;;;;;5093834;28;20213;-66
2021/04/10 06:10:27;;;;;;;1.70;1.60;;;12.00;84.90;;;;;;5093785;28;20317;-66
2021/04/10 06:12:53;;;;;;;2.78;1.58;;;12.00;85.10;;;;;;5093982;28;20208;-66
2021/04/10 06:15:20;;;;;;;2.38;1.67;;;12.00;84.90;;;;;;5093843;28;20323;-67
2021/04/10 06:17:47;;;;;;;2.47;1.52;;;12.00;84.60;;;;;;5093530;28;20212;-66
2021/04/10 06:20:16;;;;;;;2.50;1.80;;;12.00;84.60;;;;;;5093720;28;20235;-66
2021/04/10 06:22:42;;;;;;;2.25;1.42;;;12.10;84.80;;;;;;5093667;28;20290;-67
2021/04/10 06:25:09;;;;;;;1.63;1.45;;;12.00;85.00;;;;;;5093446;28;20317;-66
2021/04/10 06:27:37;;;;;;;1.45;1.33;;;12.10;85.00;;;;;;5094479;28;20234;-66
2021/04/10 06:30:05;;;;;;;2.13;1.17;;;12.10;84.70;;;;;;5098079;28;20221;-66
2021/04/10 06:32:31;;;;;;;2.90;1.90;;;12.10;85.10;;;;;;5098150;28;20673;-66
2021/04/10 06:34:57;;;;;;;1.35;1.25;;;12.10;85.60;;;;;;5098186;28;20288;-66
2021/04/10 06:37:24;;;;;;;2.90;1.60;;;12.10;85.50;;;;;;5097615;28;20206;-66
2021/04/10 06:39:51;;;;;;;1.90;1.33;;;12.10;85.90;;;;;;5097299;28;20225;-66
2021/04/10 06:42:18;;;;;;;1.50;1.40;;;12.10;86.10;;;;;;5097918;28;20335;-66
2021/04/10 06:44:45;;;;;;;2.13;1.60;;;12.10;85.80;;;;;;5097528;28;20226;-66
2021/04/10 06:47:11;;;;;;;1.55;1.25;;;12.10;86.20;;;;;;5097329;28;20206;-66
2021/04/10 06:49:38;;;;;;;3.40;1.73;;;12.10;86.20;;;;;;5097512;28;20279;-66
2021/04/10 06:52:07;;;;;;;2.33;1.40;;;12.10;86.60;;;;;;5097153;28;20202;-66
2021/04/10 06:54:38;;;;;;;2.45;1.50;;;12.10;87.20;;;;;;5097288;28;20247;-67
2021/04/10 06:57:11;;;;;;;4.78;1.67;;;12.10;86.80;;;;;;5097372;28;20315;-66
2021/04/10 06:59:45;;;;;;;2.05;1.35;;;12.10;87.10;;;;;;5097635;28;20278;-66
2021/04/10 07:02:12;;;;;;;1.95;1.48;;;12.10;87.60;;;;;;5097970;28;20277;-66
2021/04/10 07:04:39;;;;;;;1.80;1.70;;;12.10;87.80;;;;;;5097226;28;20221;-66
2021/04/10 07:07:05;;;;;;;2.75;1.67;;;12.10;88.60;;;;;;5097167;28;20202;-66
2021/04/10 07:09:35;;;;;;;1.75;1.55;;;12.10;91.20;;;;;;5097129;28;20311;-66
2021/04/10 07:12:03;;;;;;;1.40;1.30;;;12.00;92.30;;;;;;5097359;28;20210;-66
2021/04/10 07:14:30;;;;;;;1.48;1.27;;;12.00;92.70;;;;;;5097525;28;20194;-66
2021/04/10 07:16:57;;;;;;;1.88;1.77;;;11.90;93.20;;;;;;5096878;28;20229;-66
2021/04/10 07:19:25;;;;;;;1.80;1.70;;;11.90;94.10;;;;;;5096919;28;20206;-66
2021/04/10 07:22:03;;;;;;;3.03;1.63;;;11.90;93.20;;;;;;5097249;28;20198;-66
2021/04/10 07:24:37;;;;;;;1.67;1.30;;;11.90;93.60;;;;;;5096964;28;20678;-66
2021/04/10 07:27:04;;;;;;;1.65;1.55;;;11.90;93.10;;;;;;5096517;28;20201;-66
2021/04/10 07:29:32;;;;;;;1.83;1.45;;;12.00;93.50;;;;;;5096574;28;20212;-66
2021/04/10 07:32:00;;;;;;;2.45;1.70;;;12.20;93.00;;;;;;5096750;28;20233;-66
2021/04/10 07:34:28;;;;;;;2.13;1.80;;;12.20;92.70;;;;;;5096806;28;20198;-66
2021/04/10 07:37:02;;;;;;;2.65;1.48;;;12.20;92.40;;;;;;5096446;28;20206;-66
2021/04/10 07:39:29;;;;;;;1.20;1.10;;;12.20;92.10;;;;;;5096810;28;20608;-66
2021/04/10 07:42:01;;;;;;;1.63;1.30;;;12.20;92.00;;;;;;5096566;28;20204;-66
2021/04/10 07:44:38;;;;;;;1.77;1.30;;;12.20;91.80;;;;;;5096564;28;20226;-67
2021/04/10 07:47:06;;;;;;;1.90;1.75;;;12.20;91.30;;;;;;5096207;28;20296;-66
2021/04/10 07:49:33;;;;;;;2.10;1.67;;;12.20;91.80;;;;;;5096441;28;20709;-66
2021/04/10 07:52:03;;;;;;;3.08;1.80;;;12.30;91.50;;;;;;5096684;28;20288;-66
2021/04/10 07:54:31;;;;;;;1.55;1.45;;;12.30;91.70;;;;;;5096426;28;20592;-66
2021/04/10 07:57:00;;;;;;;1.65;1.55;;;12.20;91.30;;;;;;5096234;28;20229;-66
2021/04/10 07:59:27;;;;;;;1.70;1.50;;;12.20;91.50;;;;;;5096120;28;20216;-66
2021/04/10 08:01:54;;;;;;;1.70;1.60;;;12.20;91.50;;;;;;5096400;28;20293;-67
2021/04/10 08:04:21;;;;;;;1.35;1.05;;;12.20;91.40;;;;;;5096437;28;20222;-67
2021/04/10 08:06:54;;;;;;;1.50;1.40;;;12.30;91.60;;;;;;5095920;28;20569;-66
2021/04/10 08:09:29;;;;;;;2.15;1.95;;;12.40;91.70;;;;;;5095998;28;20209;-66
2021/04/10 08:11:56;;;;;;;1.80;1.70;;;12.30;92.50;;;;;;5096347;28;20197;-66
2021/04/10 08:14:23;;;;;;;3.90;1.88;;;12.30;93.30;;;;;;5096180;28;20611;-66
2021/04/10 08:16:51;;;;;;;2.15;1.52;;;12.20;94.40;;;;;;5095457;28;20571;-66
2021/04/10 08:19:28;;;;;;;2.20;1.33;;;12.10;96.20;;;;;;5096199;28;20213;-67
2021/04/10 08:21:54;;;;;;;1.92;1.75;;;12.00;97.30;;;;;;5096057;28;20190;-67
2021/04/10 08:24:27;;;;;;;1.70;1.40;;;12.00;97.90;;;;;;5095847;28;20578;-66
2021/04/10 08:26:54;;;;;;;3.85;2.80;;;12.00;98.20;;;;;;5095536;28;20285;-67
2021/04/10 08:29:21;;;;;;;5.70;3.35;;;12.00;97.90;;;;;;5095359;28;20210;-66
2021/04/10 08:31:50;;;;;;;2.63;1.80;;;12.00;97.50;;;;;;5096526;28;20197;-67
2021/04/10 08:34:17;;;;;;;1.65;1.55;;;12.00;97.10;;;;;;5095604;28;20243;-66
2021/04/10 08:36:49;;;;;;;1.60;1.50;;;12.00;96.50;;;;;;5095525;28;20202;-67
2021/04/10 08:39:18;;;;;;;1.20;1.10;;;12.00;96.20;;;;;;5095302;28;20251;-67
2021/04/10 08:41:46;;;;;;;1.38;1.27;;;12.00;96.10;;;;;;5096018;28;20250;-67
2021/04/10 08:44:15;;;;;;;1.40;1.30;;;12.10;95.80;;;;;;5095139;28;20225;-67
2021/04/10 08:46:44;;;;;;;2.17;1.20;;;12.10;95.80;;;;;;5094975;28;20665;-67
2021/04/10 08:49:14;;;;;;;1.67;1.52;;;12.10;95.30;;;;;;5095410;28;20293;-67
2021/04/10 08:51:41;;;;;;;1.20;1.10;;;12.20;95.10;;;;;;5095056;28;20263;-66
2021/04/10 08:54:10;;;;;;;1.73;1.63;;;12.20;95.40;;;;;;5095475;28;20205;-67
2021/04/10 08:56:37;;;;;;;3.85;1.50;;;12.20;94.80;;;;;;5094540;28;20210;-67
2021/04/10 08:59:11;;;;;;;1.58;1.45;;;12.30;95.10;;;;;;5095053;28;20198;-66
2021/04/10 09:01:39;;;;;;;2.20;1.30;;;12.30;94.80;;;;;;5095286;28;20217;-67
2021/04/10 09:04:06;;;;;;;3.60;1.90;;;12.40;94.80;;;;;;5095123;28;20300;-66
2021/04/10 09:06:50;;;;;;;5.82;3.70;;;12.50;94.40;;;;;;5094662;28;20198;-67
2021/04/10 09:09:46;;;;;;;1.50;1.30;;;12.50;94.50;;;;;;5095214;28;20233;-66
2021/04/10 09:12:26;;;;;;;1.52;1.40;;;12.60;93.60;;;;;;5093678;28;20284;-66
2021/04/10 09:14:53;;;;;;;1.90;1.13;;;12.60;93.70;;;;;;5095044;28;20316;-66
2021/04/10 09:17:19;;;;;;;1.45;1.35;;;12.70;93.70;;;;;;5094541;28;20319;-67
2021/04/10 09:19:52;;;;;;;2.15;1.20;;;12.70;92.80;;;;;;5094530;28;20312;-67
2021/04/10 09:22:19;;;;;;;1.60;1.50;;;12.80;93.00;;;;;;5094644;28;20193;-67
2021/04/10 09:24:47;;;;;;;1.27;1.17;;;12.80;92.70;;;;;;5094734;28;20222;-67
2021/04/10 09:27:20;;;;;;;1.10;1.00;;;12.80;92.10;;;;;;5094877;28;20297;-67
2021/04/10 09:29:48;;;;;;;3.45;1.27;;;12.90;92.10;;;;;;5094222;28;20684;-67
2021/04/10 09:32:37;;;;;;;1.08;1.00;;;13.00;91.60;;;;;;5095205;28;20289;-67
2021/04/10 09:35:09;;;;;;;3.45;1.05;;;12.90;91.20;;;;;;5094856;28;20229;-67
2021/04/10 09:37:48;;;;;;;1.88;1.30;;;12.90;91.20;;;;;;5094432;28;20206;-66
2021/04/10 09:40:20;;;;;;;1.73;1.17;;;12.80;91.20;;;;;;5094063;28;20218;-67
2021/04/10 09:42:49;;;;;;;1.40;1.30;;;12.80;91.00;;;;;;5094003;28;20182;-67
2021/04/10 09:45:17;;;;;;;1.63;1.20;;;12.90;91.30;;;;;;5094023;28;20238;-66
2021/04/10 09:48:21;;;;;;;1.17;1.08;;;12.90;91.10;;;;;;5094340;28;20289;-67
2021/04/10 09:51:14;;;;;;;2.50;1.30;;;13.00;90.90;;;;;;5094464;28;20267;-67
2021/04/10 09:53:46;;;;;;;2.13;1.45;;;13.00;91.10;;;;;;5094243;28;20205;-66
2021/04/10 09:56:14;;;;;;;1.85;1.20;;;13.10;90.90;;;;;;5093616;28;20584;-67
2021/04/10 09:58:43;;;;;;;1.20;1.20;;;13.20;90.40;;;;;;5093704;28;20205;-66
2021/04/10 10:01:17;;;;;;;2.70;1.20;;;13.20;90.00;;;;;;5093682;28;20226;-67
2021/04/10 10:03:46;;;;;;;1.50;1.40;;;13.30;90.30;;;;;;5092982;28;20221;-67
2021/04/10 10:06:27;;;;;;;2.75;1.20;;;13.30;89.90;;;;;;5093415;28;20206;-66
2021/04/10 10:08:54;;;;;;;2.00;1.02;;;13.40;89.20;;;;;;5094154;28;20210;-67
2021/04/10 10:11:21;;;;;;;1.33;1.08;;;13.40;88.80;;;;;;5094415;28;20359;-67
2021/04/10 10:13:48;;;;;;;3.53;1.20;;;13.40;88.60;;;;;;5093823;28;20565;-67
2021/04/10 10:16:23;;;;;;;3.63;1.35;;;13.40;88.60;;;;;;5093734;28;20202;-66
2021/04/10 10:18:49;;;;;;;1.20;1.10;;;13.50;87.70;;;;;;5093780;28;20649;-66
2021/04/10 10:21:17;;;;;;;1.27;1.15;;;13.50;87.80;;;;;;5093674;28;20226;-67
2021/04/10 10:23:48;;;;;;;1.67;1.10;;;13.50;88.00;;;;;;5093782;28;20578;-67
2021/04/10 10:26:17;;;;;;;1.95;1.40;;;13.60;88.40;;;;;;5093750;28;20206;-67
2021/04/10 10:28:44;;;;;;;2.67;1.25;;;13.60;87.80;;;;;;5093700;28;20235;-66
2021/04/10 10:31:13;;;;;;;1.60;1.30;;;13.60;87.10;;;;;;5093848;28;20230;-67
2021/04/10 10:33:40;;;;;;;2.63;1.27;;;13.70;88.00;;;;;;5093700;28;20289;-67
2021/04/10 10:36:07;;;;;;;1.30;1.20;;;13.80;87.20;;;;;;5093329;28;20206;-66
2021/04/10 10:38:35;;;;;;;1.30;1.20;;;13.90;85.90;;;;;;5093973;28;20206;-67
2021/04/10 10:41:02;;;;;;;1.00;1.00;;;13.90;84.50;;;;;;5093400;28;20226;-67
2021/04/10 10:43:30;;;;;;;1.98;1.30;;;13.80;84.60;;;;;;5093580;28;20666;-66
2021/04/10 10:45:58;;;;;;;2.08;1.60;;;13.80;85.00;;;;;;5093199;28;20670;-66
2021/04/10 10:48:30;;;;;;;1.88;1.70;;;13.90;85.20;;;;;;5093478;28;20259;-67
2021/04/10 10:51:03;;;;;;;5.32;2.03;;;13.90;85.60;;;;;;5093193;28;20257;-66
2021/04/10 10:53:32;;;;;;;1.25;1.15;;;14.00;85.60;;;;;;5094191;28;20275;-66
2021/04/10 10:56:08;;;;;;;1.20;1.10;;;14.00;83.80;;;;;;5092806;28;20249;-66
2021/04/10 10:58:38;;;;;;;1.30;1.20;;;14.00;83.50;;;;;;5093613;28;20201;-66
2021/04/10 11:01:19;;;;;;;1.63;1.10;;;14.10;84.00;;;;;;5093481;28;20744;-67
2021/04/10 11:03:49;;;;;;;0.65;0.65;;;14.10;82.70;;;;;;5093645;28;20232;-66
2021/04/10 11:06:17;;;;;;;2.30;1.23;;;14.20;82.60;;;;;;5093254;28;20344;-66
2021/04/10 11:08:43;;;;;;;3.67;1.25;;;14.30;82.50;;;;;;5093419;28;20293;-66
2021/04/10 11:11:11;;;;;;;1.10;1.00;;;14.40;82.20;;;;;;5093651;28;20629;-67
2021/04/10 11:13:45;;;;;;;1.10;1.00;;;14.60;81.70;;;;;;5094517;28;20225;-67
2021/04/10 11:16:13;;;;;;;0.93;0.93;;;14.70;80.90;;;;;;5097251;28;20298;-73
2021/04/10 11:18:40;;;;;;;1.30;1.20;;;14.90;79.60;;;;;;5107016;28;20213;-70
2021/04/10 11:21:21;;;;;;;1.60;1.38;;;15.10;79.20;;;;;;5116849;28;20359;-70
2021/04/10 11:23:58;;;;;;;7.80;1.90;;;15.20;79.20;;;;;;5116389;28;20570;-71
2021/04/10 11:26:40;;;;;;;2.05;1.77;;;15.40;77.10;;;;;;5116114;28;20285;-68
2021/04/10 11:29:28;;;;;;;2.53;2.25;;;15.50;76.20;;;;;;5116404;28;20323;-71
2021/04/10 11:32:12;;;;;;;2.20;1.60;;;15.50;75.60;;;;;;5116162;28;20603;-69
2021/04/10 11:34:41;;;;;;;1.60;1.20;;;15.70;75.70;;;;;;5116053;28;20206;-69
2021/04/10 11:37:09;;;;;;;1.45;1.30;;;15.70;75.00;;;;;;5115952;28;20280;-70
2021/04/10 11:39:49;;;;;;;1.20;1.10;;;15.90;75.40;;;;;;5116229;28;20255;-70
2021/04/10 11:42:27;;;;;;;1.27;1.17;;;16.10;73.80;;;;;;5116293;28;20579;-69
2021/04/10 11:44:56;;;;;;;0.85;0.85;;;16.10;73.30;;;;;;5116031;28;20220;-76
2021/04/10 11:47:25;;;;;;;0.93;0.88;;;16.00;72.60;;;;;;5115487;28;20210;-74
2021/04/10 11:49:52;;;;;;;1.20;1.10;;;16.10;73.20;;;;;;5115955;28;20625;-73
2021/04/10 11:52:23;;;;;;;1.45;1.10;;;16.10;72.10;;;;;;5115454;28;20747;-76
2021/04/10 11:55:01;;;;;;;0.80;0.80;;;16.10;71.70;;;;;;5115822;28;20578;-76
2021/04/10 11:57:29;;;;;;;1.58;1.17;;;16.00;71.70;;;;;;5115452;28;20299;-72
2021/04/10 12:00:12;;;;;;;2.75;1.80;;;16.10;71.50;;;;;;5115474;28;20315;-73
2021/04/10 12:02:41;;;;;;;2.20;1.45;;;16.10;71.00;;;;;;5116604;28;20290;-75
2021/04/10 12:05:22;;;;;;;1.20;1.10;;;16.10;72.00;;;;;;5119055;28;20259;-77
2021/04/10 12:08:11;;;;;;;1.58;1.10;;;16.20;71.20;;;;;;5117809;28;20295;-76
2021/04/10 12:10:41;;;;;;;1.20;1.10;;;16.30;70.90;;;;;;5115170;28;20311;-75
2021/04/10 12:13:07;;;;;;;2.15;0.93;;;16.30;71.10;;;;;;5115574;28;20201;-75
2021/04/10 12:15:36;;;;;;;1.95;1.00;;;16.40;70.50;;;;;;5115117;28;20201;-73
2021/04/10 12:18:04;;;;;;;2.55;2.00;;;16.50;69.90;;;;;;5115240;28;20625;-75
2021/04/10 12:20:31;;;;;;;1.08;0.85;;;16.60;70.50;;;;;;5115156;28;20267;-75
2021/04/10 12:22:58;;;;;;;1.02;0.85;;;16.80;69.60;;;;;;5115626;28;20201;-75
2021/04/10 12:25:24;;;;;;;2.70;1.10;;;16.90;69.10;;;;;;5114245;28;20856;-72
2021/04/10 12:27:50;;;;;;;2.25;0.88;;;17.20;69.90;;;;;;5115562;28;20915;-76
2021/04/10 12:30:17;;;;;;;1.60;1.50;;;17.40;68.90;;;;;;5115687;28;20319;-76
2021/04/10 12:32:44;;;;;;;1.00;0.80;;;17.60;67.90;;;;;;5117405;28;20205;-73
2021/04/10 12:35:12;;;;;;;1.20;1.00;;;17.70;66.20;;;;;;5116751;28;20296;-77
2021/04/10 12:37:41;;;;;;;0.90;0.90;;;17.70;64.60;;;;;;5115118;28;20278;-76
2021/04/10 12:40:09;;;;;;;4.18;1.15;;;17.70;64.30;;;;;;5115760;28;20229;-71
2021/04/10 12:42:36;;;;;;;4.18;1.50;;;17.50;64.20;;;;;;5115607;28;20691;-70
2021/04/10 12:45:03;;;;;;;1.30;1.20;;;17.50;64.80;;;;;;5115498;28;20229;-70
2021/04/10 12:47:30;;;;;;;1.15;1.10;;;17.70;65.30;;;;;;5114945;28;20292;-71
2021/04/10 12:49:57;;;;;;;0.95;0.93;;;17.80;64.30;;;;;;5114364;28;20228;-70
2021/04/10 12:52:23;;;;;;;1.55;1.38;;;18.20;62.00;;;;;;5114582;28;20291;-69
2021/04/10 12:54:49;;;;;;;1.60;0.80;;;18.40;62.70;;;;;;5114628;28;20346;-70
2021/04/10 12:57:16;;;;;;;1.10;0.93;;;18.60;59.90;;;;;;5114584;28;20188;-69